createdAt,value
2023-04-03T00:01:13.216Z,102009.31
2023-04-03T00:03:42.279Z,102057.25
2023-04-03T00:06:12.211Z,102052.81
2023-04-03T00:08:40.916Z,102049.34
2023-04-03T00:11:08.774Z,102051.09
2023-04-03T00:13:36.655Z,102051.88
2023-04-03T00:16:06.752Z,102046.78
2023-04-03T00:18:34.502Z,102047.69
2023-04-03T00:21:02.254Z,102052.00
2023-04-03T00:23:29.955Z,102048.72
2023-04-03T00:25:58.037Z,102050.44
2023-04-03T00:28:25.807Z,102050.63
2023-04-03T00:30:53.906Z,102053.25
2023-04-03T00:33:23.457Z,102049.06
2023-04-03T00:35:51.716Z,102049.19
2023-04-03T00:38:20.258Z,102055.16
2023-04-03T00:40:50.628Z,102050.91
2023-04-03T00:43:20.738Z,102047.41
2023-04-03T00:45:50.339Z,102046.75
2023-04-03T00:48:22.023Z,102045.78
2023-04-03T00:50:54.239Z,102046.63
2023-04-03T00:53:27.348Z,102044.19
2023-04-03T00:55:57.597Z,102041.78
2023-04-03T00:58:30.649Z,102040.09
2023-04-03T01:01:00.861Z,102043.63
2023-04-03T01:03:28.657Z,102043.47
2023-04-03T01:05:58.319Z,102046.09
2023-04-03T01:08:27.195Z,102046.19
2023-04-03T01:10:56.199Z,102042.75
2023-04-03T01:13:27.631Z,102040.94
2023-04-03T01:15:56.464Z,102040.19
2023-04-03T01:18:26.390Z,102037.75
2023-04-03T01:21:21.084Z,102044.59
2023-04-03T01:23:59.537Z,102036.25
2023-04-03T01:26:28.274Z,102019.31
2023-04-03T01:28:57.202Z,102041.41
2023-04-03T01:31:28.860Z,102032.06
2023-04-03T01:33:59.532Z,102046.47
2023-04-03T01:36:31.038Z,102043.06
2023-04-03T01:39:01.061Z,102052.50
2023-04-03T01:41:29.972Z,102039.97
2023-04-03T01:44:05.801Z,102052.06
2023-04-03T01:46:33.663Z,102045.09
2023-04-03T01:49:03.263Z,102045.69
2023-04-03T01:51:31.257Z,102046.66
2023-04-03T01:53:59.113Z,102049.44
2023-04-03T01:56:27.689Z,102041.69
2023-04-03T01:58:56.057Z,102037.53
2023-04-03T02:01:24.194Z,102041.19
2023-04-03T02:03:51.991Z,102042.09
2023-04-03T02:06:21.144Z,102045.59
2023-04-03T02:08:48.928Z,102033.34
2023-04-03T02:11:17.008Z,102036.81
2023-04-03T02:13:44.752Z,102042.00
2023-04-03T02:16:14.113Z,102034.53
2023-04-03T02:18:43.051Z,102040.66
2023-04-03T02:21:10.847Z,102039.25
2023-04-03T02:23:39.998Z,102045.13
2023-04-03T02:26:09.767Z,102041.59
2023-04-03T02:28:38.492Z,102046.16
2023-04-03T02:31:08.298Z,102040.00
2023-04-03T02:33:38.556Z,102044.44
2023-04-03T02:36:10.745Z,102045.34
2023-04-03T02:38:42.110Z,102048.13
2023-04-03T02:41:12.845Z,102050.75
2023-04-03T02:43:41.107Z,102051.59
2023-04-03T02:46:09.448Z,102053.66
2023-04-03T02:48:38.982Z,102054.63
2023-04-03T02:51:07.246Z,102052.91
2023-04-03T02:53:35.065Z,102055.66
2023-04-03T02:56:10.763Z,102065.34
2023-04-03T02:58:38.749Z,102062.00
2023-04-03T03:01:08.572Z,102064.69
2023-04-03T03:03:36.388Z,102057.59
2023-04-03T03:06:05.430Z,102059.31
2023-04-03T03:08:35.373Z,102045.56
2023-04-03T03:11:03.403Z,102057.50
2023-04-03T03:13:33.433Z,102063.53
2023-04-03T03:16:01.661Z,102058.16
2023-04-03T03:18:29.740Z,102063.63
2023-04-03T03:20:59.041Z,102065.19
2023-04-03T03:23:28.819Z,102058.16
2023-04-03T03:25:57.485Z,102045.38
2023-04-03T03:28:25.337Z,102054.88
2023-04-03T03:30:54.722Z,102054.88
2023-04-03T03:33:23.848Z,102055.66
2023-04-03T03:35:52.124Z,102034.50
2023-04-03T03:38:20.214Z,102057.50
2023-04-03T03:40:49.381Z,102055.56
2023-04-03T03:43:19.688Z,102052.19
2023-04-03T03:45:52.311Z,102049.38
2023-04-03T03:48:22.081Z,102055.72
2023-04-03T03:50:50.782Z,102044.56
2023-04-03T03:53:20.368Z,102055.66
2023-04-03T03:55:49.473Z,102052.97
2023-04-03T03:58:18.064Z,102043.59
2023-04-03T04:00:45.904Z,102048.03
2023-04-03T04:03:13.763Z,102054.88
2023-04-03T04:05:43.596Z,102049.81
2023-04-03T04:08:11.575Z,102054.22
2023-04-03T04:10:40.260Z,102048.13
2023-04-03T04:13:08.982Z,102055.91
2023-04-03T04:16:04.801Z,102034.59
2023-04-03T04:18:42.686Z,102064.75
2023-04-03T04:21:14.627Z,102040.97
2023-04-03T04:23:43.383Z,102069.22
2023-04-03T04:26:11.413Z,102071.25
2023-04-03T04:28:43.185Z,102076.19
2023-04-03T04:31:11.624Z,102066.72
2023-04-03T04:33:39.530Z,102074.31
2023-04-03T04:36:09.477Z,102072.53
2023-04-03T04:38:39.566Z,102080.44
2023-04-03T04:41:07.853Z,102074.31
2023-04-03T04:43:36.158Z,102074.41
2023-04-03T04:46:06.086Z,102072.78
2023-04-03T04:48:41.330Z,102069.53
2023-04-03T04:51:09.696Z,102079.00
2023-04-03T04:53:40.461Z,102083.19
2023-04-03T04:56:09.825Z,102088.56
2023-04-03T04:58:39.895Z,102096.56
2023-04-03T05:01:10.358Z,102086.00
2023-04-03T05:03:45.548Z,102094.75
2023-04-03T05:06:13.392Z,102096.53
2023-04-03T05:08:42.575Z,102093.09
2023-04-03T05:11:10.810Z,102096.09
2023-04-03T05:13:39.842Z,102101.44
2023-04-03T05:16:08.246Z,102098.91
2023-04-03T05:18:37.071Z,102102.44
2023-04-03T05:21:09.269Z,102105.84
2023-04-03T05:23:37.419Z,102105.16
2023-04-03T05:26:07.583Z,102117.22
2023-04-03T05:28:37.389Z,102114.63
2023-04-03T05:31:06.398Z,102111.09
2023-04-03T05:33:37.276Z,102118.09
2023-04-03T05:36:08.084Z,102115.53
2023-04-03T05:38:41.248Z,102117.22
2023-04-03T05:41:11.774Z,102125.09
2023-04-03T05:43:40.010Z,102125.88
2023-04-03T05:46:12.995Z,102131.22
2023-04-03T05:48:42.255Z,102129.31
2023-04-03T05:51:17.187Z,102132.84
2023-04-03T05:53:46.690Z,102141.47
2023-04-03T05:56:19.153Z,102129.47
2023-04-03T05:58:47.161Z,102138.00
2023-04-03T06:01:15.962Z,102139.47
2023-04-03T06:03:44.680Z,102149.91
2023-04-03T06:06:17.663Z,102155.72
2023-04-03T06:08:47.100Z,102148.94
2023-04-03T06:11:16.412Z,102155.59
2023-04-03T06:13:44.248Z,102157.91
2023-04-03T06:16:16.441Z,102159.69
2023-04-03T06:18:44.289Z,102161.06
2023-04-03T06:21:14.038Z,102167.91
2023-04-03T06:23:42.876Z,102174.06
2023-04-03T06:26:11.219Z,102160.84
2023-04-03T06:28:40.253Z,102162.38
2023-04-03T06:31:08.071Z,102167.44
2023-04-03T06:33:36.028Z,102166.75
2023-04-03T06:36:06.664Z,102163.91
2023-04-03T06:38:34.634Z,102163.91
2023-04-03T06:41:02.313Z,102160.16
2023-04-03T06:43:30.006Z,102151.50
2023-04-03T06:46:02.109Z,102143.81
2023-04-03T06:48:30.205Z,102141.03
2023-04-03T06:50:57.926Z,102167.59
2023-04-03T06:53:31.620Z,102159.56
2023-04-03T06:56:02.469Z,102163.69
2023-04-03T06:58:30.460Z,102165.34
2023-04-03T07:00:59.687Z,102168.75
2023-04-03T07:03:27.650Z,102163.41
2023-04-03T07:05:55.492Z,102164.00
2023-04-03T07:08:24.260Z,102163.94
2023-04-03T07:10:52.123Z,102163.81
2023-04-03T07:13:19.916Z,102146.50
2023-04-03T07:15:48.059Z,102153.56
2023-04-03T07:18:17.939Z,102173.91
2023-04-03T07:20:46.275Z,102177.28
2023-04-03T07:23:14.123Z,102175.50
2023-04-03T07:25:44.998Z,102183.94
2023-04-03T07:28:12.963Z,102188.91
2023-04-03T07:30:54.330Z,102170.66
2023-04-03T07:33:24.820Z,102188.78
2023-04-03T07:35:53.083Z,102185.13
2023-04-03T07:38:20.865Z,102189.34
2023-04-03T07:40:49.620Z,102189.25
2023-04-03T07:43:18.144Z,102177.19
2023-04-03T07:45:46.333Z,102190.00
2023-04-03T07:48:15.289Z,102199.69
2023-04-03T07:50:44.990Z,102198.72
2023-04-03T07:53:12.826Z,102205.59
2023-04-03T07:55:43.959Z,102210.84
2023-04-03T07:58:15.461Z,102200.47
2023-04-03T08:00:46.173Z,102202.47
2023-04-03T08:03:14.786Z,102206.41
2023-04-03T08:05:45.604Z,102204.69
2023-04-03T08:08:14.589Z,102211.66
2023-04-03T08:10:42.431Z,102202.97
2023-04-03T08:13:11.534Z,102198.03
2023-04-03T08:15:39.488Z,102200.38
2023-04-03T08:18:07.447Z,102208.09
2023-04-03T08:20:35.765Z,102203.66
2023-04-03T08:23:05.381Z,102216.56
2023-04-03T08:25:33.125Z,102213.81
2023-04-03T08:28:00.868Z,102212.03
2023-04-03T08:30:32.045Z,102211.00
2023-04-03T08:33:02.031Z,102210.09
2023-04-03T08:35:30.262Z,102201.44
2023-04-03T08:37:58.459Z,102197.53
2023-04-03T08:40:27.751Z,102216.66
2023-04-03T08:43:07.037Z,102216.00
2023-04-03T08:45:47.968Z,102210.75
2023-04-03T08:48:22.692Z,102200.16
2023-04-03T08:50:55.394Z,102196.94
2023-04-03T08:53:27.754Z,102217.56
2023-04-03T08:56:00.482Z,102197.41
2023-04-03T08:58:31.665Z,102196.56
2023-04-03T09:01:02.671Z,102219.72
2023-04-03T09:03:34.673Z,102209.28
2023-04-03T09:06:07.325Z,102190.78
2023-04-03T09:08:41.154Z,102209.09
2023-04-03T09:11:20.074Z,102215.06
2023-04-03T09:13:54.605Z,102202.44
2023-04-03T09:16:34.436Z,102210.06
2023-04-03T09:19:16.754Z,102219.50
2023-04-03T09:21:44.758Z,102228.88
2023-04-03T09:24:15.679Z,102229.59
2023-04-03T09:26:48.072Z,102229.72
2023-04-03T09:29:21.709Z,102224.59
2023-04-03T09:31:52.214Z,102228.53
2023-04-03T09:34:24.844Z,102231.78
2023-04-03T09:36:54.807Z,102230.53
2023-04-03T09:39:25.159Z,102227.78
2023-04-03T09:42:02.962Z,102221.19
2023-04-03T09:44:32.776Z,102199.63
2023-04-03T09:47:01.294Z,102218.97
2023-04-03T09:49:29.377Z,102228.50
2023-04-03T09:51:57.197Z,102223.66
2023-04-03T09:54:41.033Z,102220.88
2023-04-03T09:57:15.404Z,102226.66
2023-04-03T09:59:48.236Z,102226.50
2023-04-03T10:02:37.906Z,102218.78
2023-04-03T10:05:10.029Z,102219.97
2023-04-03T10:07:40.268Z,102215.25
2023-04-03T10:10:21.262Z,102212.81
2023-04-03T10:12:50.861Z,102211.19
2023-04-03T10:15:21.751Z,102217.75
2023-04-03T10:17:56.816Z,102209.88
2023-04-03T10:20:32.606Z,102204.66
2023-04-03T10:23:12.217Z,102199.47
2023-04-03T10:25:45.881Z,102213.38
2023-04-03T10:28:23.162Z,102204.06
2023-04-03T10:30:55.402Z,102203.19
2023-04-03T10:33:41.543Z,102205.13
2023-04-03T10:36:21.883Z,102211.03
2023-04-03T10:39:00.750Z,102210.34
2023-04-03T10:41:40.475Z,102198.75
2023-04-03T10:44:18.717Z,102203.47
2023-04-03T10:46:50.885Z,102197.56
2023-04-03T10:49:33.375Z,102192.31
2023-04-03T10:52:07.596Z,102198.56
2023-04-03T10:54:40.010Z,102199.13
2023-04-03T10:57:33.737Z,102200.03
2023-04-03T11:00:09.468Z,102191.63
2023-04-03T11:02:41.646Z,102180.41
2023-04-03T11:05:19.767Z,102190.13
2023-04-03T11:07:52.452Z,102184.06
2023-04-03T11:10:25.135Z,102178.91
2023-04-03T11:12:58.703Z,102186.00
2023-04-03T11:15:33.579Z,102177.00
2023-04-03T11:18:06.342Z,102181.34
2023-04-03T11:20:35.421Z,102177.03
2023-04-03T11:23:05.889Z,102183.09
2023-04-03T11:25:36.906Z,102154.38
2023-04-03T11:28:07.387Z,102175.44
2023-04-03T11:30:48.282Z,102176.25
2023-04-03T11:33:43.915Z,102179.16
2023-04-03T11:38:56.594Z,102169.09
2023-04-03T11:41:29.907Z,102167.72
2023-04-03T11:44:01.815Z,102171.78
2023-04-03T11:46:57.850Z,102157.72
2023-04-03T11:49:53.851Z,102167.94
2023-04-03T11:52:57.820Z,102152.84
2023-04-03T11:55:47.445Z,102145.53
2023-04-03T11:58:17.663Z,102130.59
2023-04-03T12:00:51.600Z,102148.97
2023-04-03T12:04:14.900Z,102150.31
2023-04-03T12:07:05.237Z,102134.72
2023-04-03T12:10:03.766Z,102143.66
2023-04-03T12:12:41.365Z,102133.00
2023-04-03T12:15:29.001Z,102132.59
2023-04-03T12:17:56.945Z,102139.91
2023-04-03T12:20:58.721Z,102133.16
2023-04-03T12:23:34.530Z,102138.78
2023-04-03T12:26:28.283Z,102140.19
2023-04-03T12:29:00.879Z,102129.28
2023-04-03T12:31:42.702Z,102123.22
2023-04-03T12:34:25.382Z,102125.03
2023-04-03T12:37:04.460Z,102126.94
2023-04-03T12:39:54.845Z,102125.94
2023-04-03T12:43:00.555Z,102125.66
2023-04-03T12:45:29.656Z,102109.34
2023-04-03T12:47:58.309Z,102126.06
2023-04-03T12:50:31.033Z,102126.03
2023-04-03T12:53:04.292Z,102123.06
2023-04-03T12:55:32.307Z,102122.00
2023-04-03T12:58:16.080Z,102065.41
2023-04-03T13:00:43.927Z,102041.19
2023-04-03T13:03:25.936Z,102097.13
2023-04-03T13:05:53.993Z,102090.97
2023-04-03T13:08:23.237Z,102102.75
2023-04-03T13:10:59.027Z,102030.72
2023-04-03T13:13:27.391Z,102100.03
2023-04-03T13:15:56.389Z,102085.91
2023-04-03T13:18:32.686Z,102041.22
2023-04-03T13:21:07.079Z,102098.56
2023-04-03T13:23:38.214Z,102090.47
2023-04-03T13:26:07.782Z,102028.66
2023-04-03T13:28:36.487Z,102056.84
2023-04-03T13:31:11.266Z,102091.16
2023-04-03T13:33:39.809Z,102073.25
2023-04-03T13:36:13.775Z,102081.28
2023-04-03T13:38:42.814Z,102057.16
2023-04-03T13:41:27.067Z,102042.69
2023-04-03T13:44:03.424Z,102078.78
2023-04-03T13:46:38.371Z,102074.69
2023-04-03T13:49:20.291Z,102044.75
2023-04-03T13:51:54.188Z,102050.53
2023-04-03T13:54:36.749Z,102038.72
2023-04-03T13:57:05.760Z,102066.28
2023-04-03T13:59:36.231Z,102044.22
2023-04-03T14:02:18.769Z,102059.31
2023-04-03T14:04:51.746Z,102052.78
2023-04-03T14:07:21.140Z,102029.78
2023-04-03T14:09:50.901Z,102049.53
2023-04-03T14:12:30.863Z,101986.50
2023-04-03T14:15:08.790Z,102029.59
2023-04-03T14:17:36.910Z,102036.31
2023-04-03T14:20:05.875Z,102034.44
2023-04-03T14:22:35.768Z,101985.53
2023-04-03T14:25:05.765Z,102020.09
2023-04-03T14:27:37.197Z,102020.38
2023-04-03T14:30:06.866Z,102015.59
2023-04-03T14:32:34.939Z,101972.19
2023-04-03T14:35:04.184Z,102004.69
2023-04-03T14:37:33.352Z,102003.00
2023-04-03T14:40:04.810Z,102000.06
2023-04-03T14:42:36.535Z,101971.97
2023-04-03T14:45:06.545Z,101990.63
2023-04-03T14:47:35.033Z,101985.22
2023-04-03T14:50:04.701Z,101960.38
2023-04-03T14:52:34.894Z,101946.56
2023-04-03T14:55:06.716Z,101937.75
2023-04-03T14:57:36.775Z,101993.09
2023-04-03T15:00:05.982Z,101977.25
2023-04-03T15:02:35.432Z,101996.47
2023-04-03T15:05:06.027Z,101986.72
2023-04-03T15:07:36.258Z,101921.28
2023-04-03T15:10:15.924Z,101969.47
2023-04-03T15:12:46.068Z,101979.78
2023-04-03T15:15:14.452Z,101949.19
2023-04-03T15:17:42.919Z,101962.34
2023-04-03T15:20:15.767Z,101890.72
2023-04-03T15:22:43.763Z,101878.41
2023-04-03T15:25:11.948Z,101974.78
2023-04-03T15:27:41.337Z,101966.00
2023-04-03T15:30:18.094Z,101974.44
2023-04-03T15:32:46.298Z,101973.81
2023-04-03T15:35:14.113Z,101915.63
2023-04-03T15:37:41.983Z,101973.34
2023-04-03T15:40:11.354Z,101976.38
2023-04-03T15:42:39.756Z,101979.16
2023-04-03T15:45:08.891Z,101881.09
2023-04-03T15:47:38.454Z,101976.28
2023-04-03T15:50:08.966Z,101979.44
2023-04-03T15:52:37.681Z,101950.78
2023-04-03T15:55:06.950Z,101975.06
2023-04-03T16:00:09.063Z,101944.09
2023-04-03T16:02:38.381Z,101987.00
2023-04-03T16:05:07.476Z,101906.69
2023-04-03T16:07:35.316Z,101976.38
2023-04-03T16:10:03.088Z,101969.19
2023-04-03T16:12:32.826Z,101971.25
2023-04-03T16:15:01.347Z,101944.53
2023-04-03T16:17:29.565Z,101970.47
2023-04-03T16:19:58.931Z,101972.75
2023-04-03T16:22:28.078Z,101959.06
2023-04-03T16:24:56.104Z,101980.94
2023-04-03T16:27:28.324Z,101968.06
2023-04-03T16:29:56.475Z,101945.88
2023-04-03T16:32:25.407Z,101986.22
2023-04-03T16:34:53.752Z,101989.13
2023-04-03T16:37:23.084Z,101984.69
2023-04-03T16:39:50.895Z,101934.63
2023-04-03T16:42:18.597Z,101988.81
2023-04-03T16:44:46.305Z,101988.66
2023-04-03T16:47:15.012Z,101987.38
2023-04-03T16:49:42.959Z,101966.16
2023-04-03T16:52:10.994Z,101966.88
2023-04-03T16:54:40.309Z,101971.97
2023-04-03T16:57:08.076Z,101993.91
2023-04-03T16:59:35.868Z,101987.25
2023-04-03T17:02:03.713Z,102005.78
2023-04-03T17:04:31.580Z,102003.22
2023-04-03T17:07:01.002Z,101997.22
2023-04-03T17:09:28.804Z,101997.63
2023-04-03T17:11:57.908Z,101994.66
2023-04-03T17:14:25.766Z,101994.97
2023-04-03T17:16:53.920Z,101953.53
2023-04-03T17:19:21.994Z,101997.81
2023-04-03T17:21:49.790Z,101993.47
2023-04-03T17:24:17.603Z,102000.66
2023-04-03T17:26:45.386Z,102002.47
2023-04-03T17:29:14.508Z,102002.84
2023-04-03T17:31:42.543Z,102004.34
2023-04-03T17:34:12.081Z,102001.97
2023-04-03T17:36:41.290Z,102002.09
2023-04-03T17:39:09.161Z,102004.91
2023-04-03T17:41:36.981Z,102000.91
2023-04-03T17:44:05.507Z,101954.94
2023-04-03T17:46:35.406Z,102003.81
2023-04-03T17:49:04.680Z,102004.38
2023-04-03T17:51:34.491Z,102008.16
2023-04-03T17:54:02.821Z,102005.88
2023-04-03T17:56:30.771Z,101999.59
2023-04-03T17:58:59.104Z,102005.00
2023-04-03T18:01:28.763Z,102012.56
2023-04-03T18:04:00.243Z,101982.38
2023-04-03T18:06:31.162Z,102004.56
2023-04-03T18:09:04.870Z,101998.41
2023-04-03T18:11:32.846Z,102017.47
2023-04-03T18:14:03.406Z,102016.19
2023-04-03T18:16:31.700Z,102026.00
2023-04-03T18:19:12.121Z,102012.31
2023-04-03T18:21:49.141Z,102017.25
2023-04-03T18:24:19.162Z,101994.50
2023-04-03T18:26:51.118Z,102023.16
2023-04-03T18:29:19.127Z,101982.78
2023-04-03T18:31:50.898Z,102027.13
2023-04-03T18:34:20.152Z,102006.09
2023-04-03T18:36:49.129Z,101985.63
2023-04-03T18:39:17.172Z,101929.50
2023-04-03T18:41:45.918Z,102031.75
2023-04-03T18:44:17.306Z,101988.72
2023-04-03T18:46:45.720Z,101991.69
2023-04-03T18:49:14.980Z,102028.59
2023-04-03T18:51:44.114Z,102032.53
2023-04-03T18:54:11.821Z,102022.50
2023-04-03T18:56:40.101Z,102027.22
2023-04-03T18:59:07.843Z,102025.22
2023-04-03T19:01:37.437Z,102030.50
2023-04-03T19:04:05.824Z,102031.53
2023-04-03T19:06:34.244Z,102043.19
2023-04-03T19:09:05.327Z,102049.41
2023-04-03T19:11:33.397Z,102017.94
2023-04-03T19:14:10.122Z,102056.34
2023-04-03T19:16:43.252Z,102062.81
2023-04-03T19:19:11.116Z,102035.44
2023-04-03T19:21:41.300Z,102063.03
2023-04-03T19:24:12.558Z,102062.16
2023-04-03T19:26:40.902Z,102055.78
2023-04-03T19:29:09.128Z,102056.13
2023-04-03T19:31:38.169Z,102074.41
2023-04-03T19:34:06.913Z,102020.16
2023-04-03T19:36:35.948Z,102072.88
2023-04-03T19:39:04.564Z,102071.50
2023-04-03T19:41:36.413Z,102069.63
2023-04-03T19:44:06.608Z,102076.09
2023-04-03T19:46:36.191Z,102069.31
2023-04-03T19:49:04.610Z,102054.41
2023-04-03T19:51:32.575Z,102066.13
2023-04-03T19:54:00.385Z,102069.38
2023-04-03T19:56:30.136Z,102050.59
2023-04-03T19:58:59.453Z,102072.31
2023-04-03T20:01:30.938Z,102073.16
2023-04-03T20:03:59.023Z,102067.63
2023-04-03T20:06:27.057Z,102041.50
2023-04-03T20:08:54.808Z,102008.44
2023-04-03T20:11:23.041Z,102077.41
2023-04-03T20:13:51.510Z,102083.00
2023-04-03T20:16:26.396Z,102054.22
2023-04-03T20:18:56.659Z,102083.31
2023-04-03T20:21:28.943Z,101974.44
2023-04-03T20:23:57.033Z,102001.50
2023-04-03T20:26:27.542Z,102048.34
2023-04-03T20:28:57.601Z,102041.94
2023-04-03T20:31:29.775Z,102074.38
2023-04-03T20:33:57.944Z,102084.81
2023-04-03T20:36:28.367Z,102052.47
2023-04-03T20:38:56.274Z,101958.22
2023-04-03T20:41:24.093Z,102072.03
2023-04-03T20:43:51.815Z,102062.63
2023-04-03T20:46:20.206Z,102087.06
2023-04-03T20:48:49.555Z,102082.72
2023-04-03T20:51:19.460Z,102027.19
2023-04-03T20:53:47.919Z,102072.59
2023-04-03T20:56:16.214Z,102081.06
2023-04-03T20:58:46.123Z,102066.19
2023-04-03T21:01:16.547Z,102020.00
2023-04-03T21:03:47.555Z,102066.34
2023-04-03T21:06:52.588Z,102070.53
2023-04-03T21:09:58.048Z,102070.81
2023-04-03T21:13:04.653Z,102072.66
2023-04-03T21:15:47.414Z,102074.69
2023-04-03T21:18:40.530Z,102072.16
2023-04-03T21:21:18.731Z,102079.97
2023-04-03T21:23:48.134Z,102085.50
2023-04-03T21:26:16.294Z,102070.50
2023-04-03T21:28:44.029Z,102058.53
2023-04-03T21:31:12.781Z,102070.75
2023-04-03T21:33:42.380Z,102028.19
2023-04-03T21:36:10.508Z,102060.03
2023-04-03T21:38:38.361Z,102087.03
2023-04-03T21:41:06.195Z,102074.03
2023-04-03T21:43:33.910Z,102081.97
2023-04-03T21:46:01.960Z,102081.19
2023-04-03T21:48:30.511Z,102084.97
2023-04-03T21:51:06.665Z,102081.00
2023-04-03T21:53:35.555Z,102081.72
2023-04-03T21:56:03.386Z,102090.66
2023-04-03T21:58:31.981Z,102095.13
2023-04-03T22:01:00.205Z,102085.72
2023-04-03T22:03:27.931Z,102063.00
2023-04-03T22:05:59.368Z,102095.66
2023-04-03T22:08:29.865Z,102096.63
2023-04-03T22:11:01.709Z,102083.81
2023-04-03T22:13:29.505Z,102084.09
2023-04-03T22:15:57.278Z,102092.69
2023-04-03T22:18:25.021Z,102057.75
2023-04-03T22:20:52.831Z,102086.56
2023-04-03T22:23:20.593Z,102091.25
2023-04-03T22:25:59.971Z,102092.25
2023-04-03T22:28:28.064Z,102084.00
2023-04-03T22:30:56.028Z,102077.34
2023-04-03T22:33:23.911Z,102087.56
2023-04-03T22:35:52.263Z,102065.28
2023-04-03T22:38:20.102Z,102078.19
2023-04-03T22:40:47.817Z,102079.19
2023-04-03T22:43:16.920Z,102074.06
2023-04-03T22:45:48.836Z,102068.31
2023-04-03T22:48:16.764Z,102055.88
2023-04-03T22:50:44.581Z,102060.13
2023-04-03T22:53:12.324Z,102055.75
2023-04-03T22:55:40.078Z,102061.00
2023-04-03T22:58:08.187Z,102062.56
2023-04-03T23:00:37.356Z,102051.69
2023-04-03T23:03:05.161Z,102051.97
2023-04-03T23:05:32.926Z,102052.09
2023-04-03T23:08:00.710Z,102047.81
2023-04-03T23:10:28.418Z,102054.78
2023-04-03T23:12:56.204Z,102050.88
2023-04-03T23:15:27.332Z,102050.31
2023-04-03T23:17:56.541Z,102047.47
2023-04-03T23:20:24.492Z,102053.13
2023-04-03T23:22:52.995Z,102050.56
2023-04-03T23:25:20.728Z,102048.97
2023-04-03T23:27:52.428Z,102046.72
2023-04-03T23:30:20.932Z,102047.69
2023-04-03T23:32:48.812Z,102051.34
2023-04-03T23:35:18.348Z,102053.06
2023-04-03T23:37:46.289Z,102039.56
2023-04-03T23:40:14.347Z,102061.38
2023-04-03T23:42:43.471Z,102052.66
2023-04-03T23:45:11.741Z,102052.78
2023-04-03T23:47:39.579Z,102053.94
2023-04-03T23:50:08.391Z,102056.56
2023-04-03T23:52:37.556Z,102058.28
2023-04-03T23:55:06.196Z,102053.38
2023-04-03T23:57:33.914Z,102053.38
